sensor_id;sensor_type;location;lat;lon;timestamp;pressure;altitude;pressure_sealevel;temperature
31528;BMP280;10206;48.012;10.030;2023-07-22T00:00:58;94850.34;;;18.02
31528;BMP280;10206;48.012;10.030;2023-07-22T00:03:24;94850.25;;;18.00
31528;BMP280;10206;48.012;10.030;2023-07-22T00:06:03;94843.34;;;17.72
31528;BMP280;10206;48.012;10.030;2023-07-22T00:08:29;94846.59;;;17.82
31528;BMP280;10206;48.012;10.030;2023-07-22T00:10:55;94850.38;;;17.62
31528;BMP280;10206;48.012;10.030;2023-07-22T00:13:21;94847.22;;;17.54
31528;BMP280;10206;48.012;10.030;2023-07-22T00:15:47;94837.09;;;17.58
31528;BMP280;10206;48.012;10.030;2023-07-22T00:18:14;94835.59;;;17.55
31528;BMP280;10206;48.012;10.030;2023-07-22T00:20:40;94831.38;;;17.54
31528;BMP280;10206;48.012;10.030;2023-07-22T00:23:06;94837.81;;;17.45
31528;BMP280;10206;48.012;10.030;2023-07-22T00:25:32;94831.59;;;17.44
31528;BMP280;10206;48.012;10.030;2023-07-22T00:27:58;94837.63;;;17.55
31528;BMP280;10206;48.012;10.030;2023-07-22T00:30:24;94835.88;;;17.47
31528;BMP280;10206;48.012;10.030;2023-07-22T00:32:51;94831.91;;;17.37
31528;BMP280;10206;48.012;10.030;2023-07-22T00:35:17;94828.41;;;17.36
31528;BMP280;10206;48.012;10.030;2023-07-22T00:37:43;94824.84;;;17.34
31528;BMP280;10206;48.012;10.030;2023-07-22T00:40:09;94829.84;;;17.24
31528;BMP280;10206;48.012;10.030;2023-07-22T00:42:38;94834.66;;;17.37
31528;BMP280;10206;48.012;10.030;2023-07-22T00:45:04;94827.41;;;17.30
31528;BMP280;10206;48.012;10.030;2023-07-22T00:47:32;94825.16;;;17.26
31528;BMP280;10206;48.012;10.030;2023-07-22T00:50:03;94822.09;;;17.20
31528;BMP280;10206;48.012;10.030;2023-07-22T00:52:30;94819.75;;;17.15
31528;BMP280;10206;48.012;10.030;2023-07-22T00:54:56;94824.03;;;17.18
31528;BMP280;10206;48.012;10.030;2023-07-22T00:57:24;94830.03;;;17.14
31528;BMP280;10206;48.012;10.030;2023-07-22T00:59:50;94830.25;;;17.05
31528;BMP280;10206;48.012;10.030;2023-07-22T01:02:17;94824.41;;;16.99
31528;BMP280;10206;48.012;10.030;2023-07-22T01:04:44;94825.19;;;16.88
31528;BMP280;10206;48.012;10.030;2023-07-22T01:07:10;94828.94;;;16.81
31528;BMP280;10206;48.012;10.030;2023-07-22T01:09:41;94822.66;;;16.92
31528;BMP280;10206;48.012;10.030;2023-07-22T01:12:08;94822.41;;;16.88
31528;BMP280;10206;48.012;10.030;2023-07-22T01:14:38;94826.09;;;16.79
31528;BMP280;10206;48.012;10.030;2023-07-22T01:17:07;94830.38;;;16.82
31528;BMP280;10206;48.012;10.030;2023-07-22T01:19:34;94825.34;;;16.78
31528;BMP280;10206;48.012;10.030;2023-07-22T01:22:05;94827.72;;;16.84
31528;BMP280;10206;48.012;10.030;2023-07-22T01:24:34;94824.97;;;16.70
31528;BMP280;10206;48.012;10.030;2023-07-22T01:27:01;94821.16;;;16.64
31528;BMP280;10206;48.012;10.030;2023-07-22T01:29:29;94823.75;;;16.62
31528;BMP280;10206;48.012;10.030;2023-07-22T01:31:55;94825.44;;;16.67
31528;BMP280;10206;48.012;10.030;2023-07-22T01:34:22;94820.97;;;16.48
31528;BMP280;10206;48.012;10.030;2023-07-22T01:36:50;94816.41;;;16.52
31528;BMP280;10206;48.012;10.030;2023-07-22T01:39:17;94821.81;;;16.50
31528;BMP280;10206;48.012;10.030;2023-07-22T01:41:44;94817.50;;;16.47
31528;BMP280;10206;48.012;10.030;2023-07-22T01:44:11;94820.31;;;16.36
31528;BMP280;10206;48.012;10.030;2023-07-22T01:46:37;94819.59;;;16.35
31528;BMP280;10206;48.012;10.030;2023-07-22T01:49:09;94824.22;;;16.19
31528;BMP280;10206;48.012;10.030;2023-07-22T01:51:36;94820.47;;;16.26
31528;BMP280;10206;48.012;10.030;2023-07-22T01:54:06;94815.19;;;16.30
31528;BMP280;10206;48.012;10.030;2023-07-22T01:56:32;94805.25;;;16.25
31528;BMP280;10206;48.012;10.030;2023-07-22T01:58:58;94806.13;;;16.28
31528;BMP280;10206;48.012;10.030;2023-07-22T02:01:24;94812.69;;;16.23
31528;BMP280;10206;48.012;10.030;2023-07-22T02:03:50;94816.00;;;16.33
31528;BMP280;10206;48.012;10.030;2023-07-22T02:06:16;94814.53;;;16.18
31528;BMP280;10206;48.012;10.030;2023-07-22T02:08:42;94815.47;;;16.23
31528;BMP280;10206;48.012;10.030;2023-07-22T02:11:09;94813.59;;;16.14
31528;BMP280;10206;48.012;10.030;2023-07-22T02:13:35;94811.44;;;16.12
31528;BMP280;10206;48.012;10.030;2023-07-22T02:16:02;94799.88;;;16.02
31528;BMP280;10206;48.012;10.030;2023-07-22T02:18:29;94809.44;;;16.01
31528;BMP280;10206;48.012;10.030;2023-07-22T02:20:56;94812.06;;;15.99
31528;BMP280;10206;48.012;10.030;2023-07-22T02:23:23;94816.16;;;15.98
31528;BMP280;10206;48.012;10.030;2023-07-22T02:25:51;94811.03;;;15.81
31528;BMP280;10206;48.012;10.030;2023-07-22T02:28:19;94817.22;;;15.93
31528;BMP280;10206;48.012;10.030;2023-07-22T02:30:53;94812.13;;;15.76
31528;BMP280;10206;48.012;10.030;2023-07-22T02:33:20;94816.78;;;15.85
31528;BMP280;10206;48.012;10.030;2023-07-22T02:35:48;94822.28;;;15.85
31528;BMP280;10206;48.012;10.030;2023-07-22T02:38:14;94809.97;;;15.75
31528;BMP280;10206;48.012;10.030;2023-07-22T02:40:40;94813.31;;;15.73
31528;BMP280;10206;48.012;10.030;2023-07-22T02:43:07;94820.03;;;15.70
31528;BMP280;10206;48.012;10.030;2023-07-22T02:45:34;94811.66;;;15.80
31528;BMP280;10206;48.012;10.030;2023-07-22T02:48:00;94817.50;;;15.74
31528;BMP280;10206;48.012;10.030;2023-07-22T02:50:26;94815.34;;;15.61
31528;BMP280;10206;48.012;10.030;2023-07-22T02:52:52;94814.06;;;15.50
31528;BMP280;10206;48.012;10.030;2023-07-22T02:55:19;94819.81;;;15.54
31528;BMP280;10206;48.012;10.030;2023-07-22T02:57:45;94827.44;;;15.56
31528;BMP280;10206;48.012;10.030;2023-07-22T03:00:13;94830.53;;;15.62
31528;BMP280;10206;48.012;10.030;2023-07-22T03:02:40;94839.78;;;15.55
31528;BMP280;10206;48.012;10.030;2023-07-22T03:05:07;94838.13;;;15.50
31528;BMP280;10206;48.012;10.030;2023-07-22T03:07:34;94836.19;;;15.52
31528;BMP280;10206;48.012;10.030;2023-07-22T03:10:01;94825.53;;;15.58
31528;BMP280;10206;48.012;10.030;2023-07-22T03:12:27;94821.72;;;15.52
31528;BMP280;10206;48.012;10.030;2023-07-22T03:14:53;94817.16;;;15.45
31528;BMP280;10206;48.012;10.030;2023-07-22T03:17:19;94823.88;;;15.42
31528;BMP280;10206;48.012;10.030;2023-07-22T03:19:46;94822.56;;;15.43
31528;BMP280;10206;48.012;10.030;2023-07-22T03:22:15;94822.31;;;15.50
31528;BMP280;10206;48.012;10.030;2023-07-22T03:24:44;94827.22;;;15.40
31528;BMP280;10206;48.012;10.030;2023-07-22T03:27:11;94828.28;;;15.35
31528;BMP280;10206;48.012;10.030;2023-07-22T03:29:38;94824.47;;;15.29
31528;BMP280;10206;48.012;10.030;2023-07-22T03:32:06;94822.59;;;15.31
31528;BMP280;10206;48.012;10.030;2023-07-22T03:34:32;94827.94;;;15.41
31528;BMP280;10206;48.012;10.030;2023-07-22T03:36:58;94824.13;;;15.34
31528;BMP280;10206;48.012;10.030;2023-07-22T03:39:25;94834.16;;;15.30
31528;BMP280;10206;48.012;10.030;2023-07-22T03:41:51;94833.94;;;15.37
31528;BMP280;10206;48.012;10.030;2023-07-22T03:44:17;94822.22;;;15.37
31528;BMP280;10206;48.012;10.030;2023-07-22T03:46:43;94826.38;;;15.26
31528;BMP280;10206;48.012;10.030;2023-07-22T03:49:09;94823.06;;;15.28
31528;BMP280;10206;48.012;10.030;2023-07-22T03:51:35;94822.69;;;15.33
31528;BMP280;10206;48.012;10.030;2023-07-22T03:54:01;94826.03;;;15.43
31528;BMP280;10206;48.012;10.030;2023-07-22T03:56:27;94823.28;;;15.43
31528;BMP280;10206;48.012;10.030;2023-07-22T03:58:53;94820.63;;;15.45
31528;BMP280;10206;48.012;10.030;2023-07-22T04:01:20;94825.78;;;15.51
31528;BMP280;10206;48.012;10.030;2023-07-22T04:03:46;94828.66;;;15.53
31528;BMP280;10206;48.012;10.030;2023-07-22T04:06:12;94827.72;;;15.60
31528;BMP280;10206;48.012;10.030;2023-07-22T04:08:38;94829.25;;;15.63
31528;BMP280;10206;48.012;10.030;2023-07-22T04:11:04;94822.50;;;15.78
31528;BMP280;10206;48.012;10.030;2023-07-22T04:13:30;94820.03;;;15.70
31528;BMP280;10206;48.012;10.030;2023-07-22T04:15:56;94826.66;;;15.90
31528;BMP280;10206;48.012;10.030;2023-07-22T04:18:23;94825.84;;;15.99
31528;BMP280;10206;48.012;10.030;2023-07-22T04:20:55;94829.53;;;16.40
31528;BMP280;10206;48.012;10.030;2023-07-22T04:23:23;94820.72;;;16.94
31528;BMP280;10206;48.012;10.030;2023-07-22T04:25:49;94814.81;;;17.68
31528;BMP280;10206;48.012;10.030;2023-07-22T04:28:15;94822.34;;;17.81
31528;BMP280;10206;48.012;10.030;2023-07-22T04:30:41;94826.06;;;17.58
31528;BMP280;10206;48.012;10.030;2023-07-22T04:33:07;94833.31;;;17.92
31528;BMP280;10206;48.012;10.030;2023-07-22T04:35:40;94823.00;;;17.66
31528;BMP280;10206;48.012;10.030;2023-07-22T04:38:06;94822.66;;;17.87
31528;BMP280;10206;48.012;10.030;2023-07-22T04:40:33;94827.94;;;17.54
31528;BMP280;10206;48.012;10.030;2023-07-22T04:42:59;94826.47;;;17.53
31528;BMP280;10206;48.012;10.030;2023-07-22T04:45:25;94834.97;;;17.43
31528;BMP280;10206;48.012;10.030;2023-07-22T04:47:51;94828.84;;;17.31
31528;BMP280;10206;48.012;10.030;2023-07-22T04:50:18;94832.84;;;17.03
31528;BMP280;10206;48.012;10.030;2023-07-22T04:52:47;94830.75;;;17.15
31528;BMP280;10206;48.012;10.030;2023-07-22T04:55:14;94828.63;;;17.27
31528;BMP280;10206;48.012;10.030;2023-07-22T04:57:41;94828.31;;;17.62
31528;BMP280;10206;48.012;10.030;2023-07-22T05:00:11;94837.19;;;17.74
31528;BMP280;10206;48.012;10.030;2023-07-22T05:02:42;94827.59;;;17.75
31528;BMP280;10206;48.012;10.030;2023-07-22T05:05:10;94827.94;;;18.10
31528;BMP280;10206;48.012;10.030;2023-07-22T05:07:36;94827.63;;;18.17
31528;BMP280;10206;48.012;10.030;2023-07-22T05:10:02;94838.31;;;18.25
31528;BMP280;10206;48.012;10.030;2023-07-22T05:12:29;94843.06;;;18.09
31528;BMP280;10206;48.012;10.030;2023-07-22T05:14:55;94847.59;;;18.02
31528;BMP280;10206;48.012;10.030;2023-07-22T05:17:21;94841.28;;;18.29
31528;BMP280;10206;48.012;10.030;2023-07-22T05:19:47;94839.13;;;18.27
31528;BMP280;10206;48.012;10.030;2023-07-22T05:22:14;94847.81;;;18.35
31528;BMP280;10206;48.012;10.030;2023-07-22T05:24:41;94853.03;;;18.59
31528;BMP280;10206;48.012;10.030;2023-07-22T05:27:07;94855.56;;;18.68
31528;BMP280;10206;48.012;10.030;2023-07-22T05:29:33;94855.38;;;18.80
31528;BMP280;10206;48.012;10.030;2023-07-22T05:31:59;94851.28;;;18.81
31528;BMP280;10206;48.012;10.030;2023-07-22T05:34:25;94863.34;;;19.03
31528;BMP280;10206;48.012;10.030;2023-07-22T05:36:51;94861.75;;;18.98
31528;BMP280;10206;48.012;10.030;2023-07-22T05:39:17;94863.38;;;18.74
31528;BMP280;10206;48.012;10.030;2023-07-22T05:41:44;94867.94;;;18.67
31528;BMP280;10206;48.012;10.030;2023-07-22T05:44:10;94866.56;;;19.13
31528;BMP280;10206;48.012;10.030;2023-07-22T05:46:36;94861.16;;;19.64
31528;BMP280;10206;48.012;10.030;2023-07-22T05:49:04;94861.97;;;19.99
31528;BMP280;10206;48.012;10.030;2023-07-22T05:51:31;94864.53;;;20.11
31528;BMP280;10206;48.012;10.030;2023-07-22T05:53:57;94866.84;;;20.16
31528;BMP280;10206;48.012;10.030;2023-07-22T05:56:23;94863.59;;;19.89
31528;BMP280;10206;48.012;10.030;2023-07-22T05:58:49;94872.97;;;20.15
31528;BMP280;10206;48.012;10.030;2023-07-22T06:01:15;94876.69;;;20.21
31528;BMP280;10206;48.012;10.030;2023-07-22T06:03:41;94878.25;;;20.42
31528;BMP280;10206;48.012;10.030;2023-07-22T06:06:11;94884.09;;;20.50
31528;BMP280;10206;48.012;10.030;2023-07-22T06:08:37;94876.44;;;20.86
31528;BMP280;10206;48.012;10.030;2023-07-22T06:11:03;94883.31;;;21.39
31528;BMP280;10206;48.012;10.030;2023-07-22T06:13:29;94881.31;;;21.24
31528;BMP280;10206;48.012;10.030;2023-07-22T06:15:56;94886.53;;;21.73
31528;BMP280;10206;48.012;10.030;2023-07-22T06:18:22;94874.03;;;22.15
31528;BMP280;10206;48.012;10.030;2023-07-22T06:20:50;94885.91;;;22.61
31528;BMP280;10206;48.012;10.030;2023-07-22T06:23:16;94885.97;;;22.87
31528;BMP280;10206;48.012;10.030;2023-07-22T06:25:42;94889.56;;;23.15
31528;BMP280;10206;48.012;10.030;2023-07-22T06:28:09;94888.34;;;23.45
31528;BMP280;10206;48.012;10.030;2023-07-22T06:30:35;94896.03;;;23.21
31528;BMP280;10206;48.012;10.030;2023-07-22T06:33:01;94893.91;;;23.20
31528;BMP280;10206;48.012;10.030;2023-07-22T06:35:27;94892.63;;;23.76
31528;BMP280;10206;48.012;10.030;2023-07-22T06:37:53;94902.16;;;23.41
31528;BMP280;10206;48.012;10.030;2023-07-22T06:40:19;94902.31;;;23.47
31528;BMP280;10206;48.012;10.030;2023-07-22T06:42:45;94896.97;;;22.83
31528;BMP280;10206;48.012;10.030;2023-07-22T06:45:11;94908.16;;;23.08
31528;BMP280;10206;48.012;10.030;2023-07-22T06:47:37;94904.31;;;23.70
31528;BMP280;10206;48.012;10.030;2023-07-22T06:50:10;94902.97;;;23.46
31528;BMP280;10206;48.012;10.030;2023-07-22T06:52:36;94901.06;;;22.80
31528;BMP280;10206;48.012;10.030;2023-07-22T06:55:02;94902.09;;;23.39
31528;BMP280;10206;48.012;10.030;2023-07-22T06:57:29;94910.72;;;23.49
31528;BMP280;10206;48.012;10.030;2023-07-22T06:59:56;94911.78;;;23.13
31528;BMP280;10206;48.012;10.030;2023-07-22T07:02:22;94905.25;;;23.28
31528;BMP280;10206;48.012;10.030;2023-07-22T07:04:49;94900.53;;;23.09
31528;BMP280;10206;48.012;10.030;2023-07-22T07:07:15;94903.97;;;23.07
31528;BMP280;10206;48.012;10.030;2023-07-22T07:09:42;94906.00;;;22.81
31528;BMP280;10206;48.012;10.030;2023-07-22T07:12:08;94896.13;;;22.78
31528;BMP280;10206;48.012;10.030;2023-07-22T07:14:35;94904.97;;;22.71
31528;BMP280;10206;48.012;10.030;2023-07-22T07:17:01;94902.31;;;23.47
31528;BMP280;10206;48.012;10.030;2023-07-22T07:19:28;94902.63;;;23.59
31528;BMP280;10206;48.012;10.030;2023-07-22T07:21:54;94906.56;;;23.76
31528;BMP280;10206;48.012;10.030;2023-07-22T07:24:20;94905.78;;;23.73
31528;BMP280;10206;48.012;10.030;2023-07-22T07:26:46;94913.38;;;24.26
31528;BMP280;10206;48.012;10.030;2023-07-22T07:29:12;94902.69;;;24.17
31528;BMP280;10206;48.012;10.030;2023-07-22T07:31:39;94910.28;;;24.42
31528;BMP280;10206;48.012;10.030;2023-07-22T07:34:05;94897.44;;;23.73
31528;BMP280;10206;48.012;10.030;2023-07-22T07:36:33;94904.31;;;23.98
31528;BMP280;10206;48.012;10.030;2023-07-22T07:38:59;94903.72;;;24.61
31528;BMP280;10206;48.012;10.030;2023-07-22T07:41:25;94909.56;;;24.12
31528;BMP280;10206;48.012;10.030;2023-07-22T07:43:52;94898.50;;;24.16
31528;BMP280;10206;48.012;10.030;2023-07-22T07:48:49;94909.06;;;23.40
31528;BMP280;10206;48.012;10.030;2023-07-22T07:51:17;94910.97;;;23.85
31528;BMP280;10206;48.012;10.030;2023-07-22T07:53:44;94912.22;;;23.80
31528;BMP280;10206;48.012;10.030;2023-07-22T07:56:11;94913.28;;;24.22
31528;BMP280;10206;48.012;10.030;2023-07-22T07:58:37;94911.09;;;24.46
31528;BMP280;10206;48.012;10.030;2023-07-22T08:01:04;94905.00;;;24.26
31528;BMP280;10206;48.012;10.030;2023-07-22T08:03:32;94905.09;;;24.01
31528;BMP280;10206;48.012;10.030;2023-07-22T08:05:58;94901.09;;;24.37
31528;BMP280;10206;48.012;10.030;2023-07-22T08:08:24;94905.97;;;24.66
31528;BMP280;10206;48.012;10.030;2023-07-22T08:11:01;94905.41;;;25.05
31528;BMP280;10206;48.012;10.030;2023-07-22T08:13:28;94909.81;;;24.83
31528;BMP280;10206;48.012;10.030;2023-07-22T08:15:58;94913.50;;;24.60
31528;BMP280;10206;48.012;10.030;2023-07-22T08:18:24;94898.81;;;24.30
31528;BMP280;10206;48.012;10.030;2023-07-22T08:20:54;94905.66;;;23.95
31528;BMP280;10206;48.012;10.030;2023-07-22T08:23:21;94898.72;;;23.96
31528;BMP280;10206;48.012;10.030;2023-07-22T08:25:47;94898.84;;;24.61
31528;BMP280;10206;48.012;10.030;2023-07-22T08:28:13;94900.34;;;24.98
31528;BMP280;10206;48.012;10.030;2023-07-22T08:30:40;94899.88;;;25.09
31528;BMP280;10206;48.012;10.030;2023-07-22T08:33:10;94903.53;;;24.84
31528;BMP280;10206;48.012;10.030;2023-07-22T08:35:38;94909.47;;;25.00
31528;BMP280;10206;48.012;10.030;2023-07-22T08:38:05;94909.06;;;25.50
31528;BMP280;10206;48.012;10.030;2023-07-22T08:40:39;94902.03;;;25.47
31528;BMP280;10206;48.012;10.030;2023-07-22T08:43:07;94901.16;;;25.02
31528;BMP280;10206;48.012;10.030;2023-07-22T08:45:36;94901.88;;;24.71
31528;BMP280;10206;48.012;10.030;2023-07-22T08:48:13;94907.47;;;25.05
31528;BMP280;10206;48.012;10.030;2023-07-22T08:50:52;94903.75;;;24.31
31528;BMP280;10206;48.012;10.030;2023-07-22T08:53:18;94904.84;;;24.48
31528;BMP280;10206;48.012;10.030;2023-07-22T08:55:45;94906.72;;;24.71
31528;BMP280;10206;48.012;10.030;2023-07-22T08:58:14;94909.91;;;25.21
31528;BMP280;10206;48.012;10.030;2023-07-22T09:00:40;94909.16;;;25.18
31528;BMP280;10206;48.012;10.030;2023-07-22T09:03:08;94912.00;;;25.58
31528;BMP280;10206;48.012;10.030;2023-07-22T09:05:36;94907.69;;;25.51
31528;BMP280;10206;48.012;10.030;2023-07-22T09:08:04;94898.16;;;25.66
31528;BMP280;10206;48.012;10.030;2023-07-22T09:10:32;94911.97;;;25.56
31528;BMP280;10206;48.012;10.030;2023-07-22T09:13:02;94900.88;;;24.90
31528;BMP280;10206;48.012;10.030;2023-07-22T09:15:28;94908.22;;;25.07
31528;BMP280;10206;48.012;10.030;2023-07-22T09:17:55;94903.19;;;24.68
31528;BMP280;10206;48.012;10.030;2023-07-22T09:20:21;94897.34;;;24.27
31528;BMP280;10206;48.012;10.030;2023-07-22T09:22:50;94902.44;;;24.36
31528;BMP280;10206;48.012;10.030;2023-07-22T09:25:19;94904.88;;;24.81
31528;BMP280;10206;48.012;10.030;2023-07-22T09:27:46;94903.00;;;24.92
31528;BMP280;10206;48.012;10.030;2023-07-22T09:30:37;94898.25;;;24.96
31528;BMP280;10206;48.012;10.030;2023-07-22T09:33:19;94897.31;;;24.86
31528;BMP280;10206;48.012;10.030;2023-07-22T09:35:47;94911.25;;;25.18
31528;BMP280;10206;48.012;10.030;2023-07-22T09:38:14;94903.81;;;25.68
31528;BMP280;10206;48.012;10.030;2023-07-22T09:40:42;94900.16;;;25.22
31528;BMP280;10206;48.012;10.030;2023-07-22T09:43:11;94899.81;;;25.05
31528;BMP280;10206;48.012;10.030;2023-07-22T09:45:38;94909.88;;;25.56
31528;BMP280;10206;48.012;10.030;2023-07-22T09:48:05;94905.91;;;26.09
31528;BMP280;10206;48.012;10.030;2023-07-22T09:50:32;94911.25;;;26.36
31528;BMP280;10206;48.012;10.030;2023-07-22T09:52:59;94906.41;;;26.93
31528;BMP280;10206;48.012;10.030;2023-07-22T09:55:27;94901.22;;;26.69
31528;BMP280;10206;48.012;10.030;2023-07-22T10:00:25;94908.03;;;26.56
31528;BMP280;10206;48.012;10.030;2023-07-22T10:02:57;94900.84;;;26.95
31528;BMP280;10206;48.012;10.030;2023-07-22T10:05:25;94903.25;;;27.90
31528;BMP280;10206;48.012;10.030;2023-07-22T10:07:58;94907.56;;;27.29
31528;BMP280;10206;48.012;10.030;2023-07-22T10:10:32;94894.72;;;27.08
31528;BMP280;10206;48.012;10.030;2023-07-22T10:12:58;94910.25;;;26.66
31528;BMP280;10206;48.012;10.030;2023-07-22T10:15:34;94907.00;;;26.83
31528;BMP280;10206;48.012;10.030;2023-07-22T10:18:02;94907.50;;;26.22
31528;BMP280;10206;48.012;10.030;2023-07-22T10:20:29;94904.19;;;26.33
31528;BMP280;10206;48.012;10.030;2023-07-22T10:22:56;94893.88;;;26.00
31528;BMP280;10206;48.012;10.030;2023-07-22T10:25:23;94910.97;;;26.66
31528;BMP280;10206;48.012;10.030;2023-07-22T10:27:51;94905.97;;;26.59
31528;BMP280;10206;48.012;10.030;2023-07-22T10:30:18;94893.13;;;27.57
31528;BMP280;10206;48.012;10.030;2023-07-22T10:32:47;94890.59;;;27.15
31528;BMP280;10206;48.012;10.030;2023-07-22T10:37:49;94890.97;;;26.38
31528;BMP280;10206;48.012;10.030;2023-07-22T10:40:28;94897.63;;;26.15
31528;BMP280;10206;48.012;10.030;2023-07-22T10:43:04;94895.63;;;27.27
31528;BMP280;10206;48.012;10.030;2023-07-22T10:45:41;94889.03;;;27.02
31528;BMP280;10206;48.012;10.030;2023-07-22T10:48:12;94895.75;;;28.13
31528;BMP280;10206;48.012;10.030;2023-07-22T10:50:50;94892.31;;;27.42
31528;BMP280;10206;48.012;10.030;2023-07-22T11:06:33;94871.84;;;26.72
31528;BMP280;10206;48.012;10.030;2023-07-22T11:08:59;94866.25;;;27.30
31528;BMP280;10206;48.012;10.030;2023-07-22T11:11:39;94870.28;;;27.86
31528;BMP280;10206;48.012;10.030;2023-07-22T11:14:21;94854.16;;;27.87
31528;BMP280;10206;48.012;10.030;2023-07-22T11:16:48;94842.63;;;28.51
31528;BMP280;10206;48.012;10.030;2023-07-22T11:19:16;94858.06;;;28.48
31528;BMP280;10206;48.012;10.030;2023-07-22T11:21:46;94830.03;;;27.54
31528;BMP280;10206;48.012;10.030;2023-07-22T11:24:13;94829.25;;;28.39
31528;BMP280;10206;48.012;10.030;2023-07-22T11:26:40;94841.19;;;28.42
31528;BMP280;10206;48.012;10.030;2023-07-22T11:29:07;94827.31;;;27.64
31528;BMP280;10206;48.012;10.030;2023-07-22T11:31:34;94836.25;;;27.44
31528;BMP280;10206;48.012;10.030;2023-07-22T11:34:00;94831.72;;;27.09
31528;BMP280;10206;48.012;10.030;2023-07-22T11:36:27;94827.69;;;27.26
31528;BMP280;10206;48.012;10.030;2023-07-22T11:38:53;94837.34;;;27.13
31528;BMP280;10206;48.012;10.030;2023-07-22T11:41:21;94816.31;;;27.12
31528;BMP280;10206;48.012;10.030;2023-07-22T11:43:47;94830.53;;;26.71
31528;BMP280;10206;48.012;10.030;2023-07-22T11:46:14;94819.28;;;27.24
31528;BMP280;10206;48.012;10.030;2023-07-22T11:48:49;94818.34;;;27.06
31528;BMP280;10206;48.012;10.030;2023-07-22T11:51:18;94825.50;;;27.19
31528;BMP280;10206;48.012;10.030;2023-07-22T11:53:50;94819.53;;;28.60
31528;BMP280;10206;48.012;10.030;2023-07-22T11:56:21;94816.13;;;28.90
31528;BMP280;10206;48.012;10.030;2023-07-22T11:58:52;94808.31;;;28.66
31528;BMP280;10206;48.012;10.030;2023-07-22T12:01:19;94816.91;;;29.26
31528;BMP280;10206;48.012;10.030;2023-07-22T12:03:46;94814.09;;;29.26
31528;BMP280;10206;48.012;10.030;2023-07-22T12:06:12;94820.44;;;29.55
31528;BMP280;10206;48.012;10.030;2023-07-22T12:08:46;94815.44;;;30.24
31528;BMP280;10206;48.012;10.030;2023-07-22T12:11:20;94811.25;;;30.13
31528;BMP280;10206;48.012;10.030;2023-07-22T12:13:46;94808.34;;;30.37
31528;BMP280;10206;48.012;10.030;2023-07-22T12:16:22;94809.75;;;30.44
31528;BMP280;10206;48.012;10.030;2023-07-22T12:18:49;94808.41;;;30.25
31528;BMP280;10206;48.012;10.030;2023-07-22T12:21:15;94808.22;;;30.69
31528;BMP280;10206;48.012;10.030;2023-07-22T12:23:42;94804.25;;;29.63
31528;BMP280;10206;48.012;10.030;2023-07-22T12:26:08;94806.38;;;29.79
31528;BMP280;10206;48.012;10.030;2023-07-22T12:28:35;94804.97;;;29.90
31528;BMP280;10206;48.012;10.030;2023-07-22T12:31:01;94781.66;;;30.18
31528;BMP280;10206;48.012;10.030;2023-07-22T12:33:27;94796.34;;;30.48
31528;BMP280;10206;48.012;10.030;2023-07-22T12:35:56;94809.06;;;30.39
31528;BMP280;10206;48.012;10.030;2023-07-22T12:38:22;94787.41;;;29.79
31528;BMP280;10206;48.012;10.030;2023-07-22T12:40:49;94793.72;;;29.94
31528;BMP280;10206;48.012;10.030;2023-07-22T12:43:15;94791.63;;;29.50
31528;BMP280;10206;48.012;10.030;2023-07-22T12:45:41;94781.78;;;29.57
31528;BMP280;10206;48.012;10.030;2023-07-22T12:48:07;94781.75;;;29.94
31528;BMP280;10206;48.012;10.030;2023-07-22T12:50:33;94786.00;;;29.34
31528;BMP280;10206;48.012;10.030;2023-07-22T12:53:01;94776.13;;;29.81
31528;BMP280;10206;48.012;10.030;2023-07-22T12:55:28;94774.75;;;29.44
31528;BMP280;10206;48.012;10.030;2023-07-22T12:57:54;94771.94;;;29.28
31528;BMP280;10206;48.012;10.030;2023-07-22T13:00:21;94780.34;;;29.91
31528;BMP280;10206;48.012;10.030;2023-07-22T13:02:47;94766.28;;;29.72
31528;BMP280;10206;48.012;10.030;2023-07-22T13:05:14;94770.53;;;29.19
31528;BMP280;10206;48.012;10.030;2023-07-22T13:07:40;94761.91;;;28.53
31528;BMP280;10206;48.012;10.030;2023-07-22T13:10:07;94773.34;;;29.29
31528;BMP280;10206;48.012;10.030;2023-07-22T13:12:37;94769.78;;;29.75
31528;BMP280;10206;48.012;10.030;2023-07-22T13:15:04;94769.84;;;29.49
31528;BMP280;10206;48.012;10.030;2023-07-22T13:17:30;94767.03;;;29.37
31528;BMP280;10206;48.012;10.030;2023-07-22T13:19:57;94757.84;;;29.20
31528;BMP280;10206;48.012;10.030;2023-07-22T13:22:23;94755.78;;;29.19
31528;BMP280;10206;48.012;10.030;2023-07-22T13:24:49;94766.97;;;29.03
31528;BMP280;10206;48.012;10.030;2023-07-22T13:27:15;94762.78;;;29.38
31528;BMP280;10206;48.012;10.030;2023-07-22T13:29:41;94760.38;;;28.20
31528;BMP280;10206;48.012;10.030;2023-07-22T13:32:08;94769.13;;;29.38
31528;BMP280;10206;48.012;10.030;2023-07-22T13:34:34;94747.09;;;28.25
31528;BMP280;10206;48.012;10.030;2023-07-22T13:37:00;94757.00;;;28.50
31528;BMP280;10206;48.012;10.030;2023-07-22T13:39:28;94758.38;;;28.35
31528;BMP280;10206;48.012;10.030;2023-07-22T13:41:54;94757.09;;;28.72
31528;BMP280;10206;48.012;10.030;2023-07-22T13:44:20;94747.34;;;29.17
31528;BMP280;10206;48.012;10.030;2023-07-22T13:46:46;94750.00;;;28.53
31528;BMP280;10206;48.012;10.030;2023-07-22T13:49:13;94745.03;;;28.33
31528;BMP280;10206;48.012;10.030;2023-07-22T13:51:41;94739.59;;;28.99
31528;BMP280;10206;48.012;10.030;2023-07-22T13:54:07;94740.06;;;28.24
31528;BMP280;10206;48.012;10.030;2023-07-22T13:56:33;94741.72;;;29.11
31528;BMP280;10206;48.012;10.030;2023-07-22T13:59:00;94738.13;;;28.82
31528;BMP280;10206;48.012;10.030;2023-07-22T14:01:27;94739.63;;;29.25
31528;BMP280;10206;48.012;10.030;2023-07-22T14:03:53;94739.59;;;29.01
31528;BMP280;10206;48.012;10.030;2023-07-22T14:06:20;94736.06;;;28.99
31528;BMP280;10206;48.012;10.030;2023-07-22T14:08:46;94736.06;;;28.99
31528;BMP280;10206;48.012;10.030;2023-07-22T14:11:12;94729.66;;;28.54
31528;BMP280;10206;48.012;10.030;2023-07-22T14:13:39;94735.31;;;28.72
31528;BMP280;10206;48.012;10.030;2023-07-22T14:16:05;94733.94;;;28.81
31528;BMP280;10206;48.012;10.030;2023-07-22T14:18:31;94731.78;;;28.68